Terminal Aerodrome Forecast
Issued by NWS

Home | Current Version | Previous Version | Text Only | Print | Product List | Glossary On
Versions: 1 2 3 4 5 6 7 8 9 10 11 12 13 14 15 16 17 18 19 20 21 22 23 24
409
FTUS43 KAPX 180751 AAA
TAFPLN
TAF AMD
KPLN 180751Z 1808/1906 00000KT 1/2SM FG OVC002
      TEMPO 1810/1814 1SM BR OVC004
     FM181400 23008KT 1SM BR OVC004
     FM181900 23012G21KT 3SM BR BKN006
     FM182200 24010G19KT 6SM BR BKN009
     FM190000 25009KT P6SM BKN010
     FM190500 25007KT 3SM BR SCT002 BKN009=

USA.gov is the U.S. government's official web portal to all federal, state and local government web resources and services.